Rechercher aéroport 
image banner adimage banner adimage banner ad
image banner ad

CL70 - Queen Of Angel-Hollywood Presbyterian Hos

Situé à Los Angeles, United States

ICAO - CL70, IATA -

Données fournies par Airmate  

Information générale

Coordonnées: N34°5'47" W118°17'25"
Élévation : 524 feet MSL.
Variation magnétique : 14° East
Voir autres Aéroports à California

Données opérationnelles

Special qualification required
Heure actuelle UTC:
Heure actuelle locale:
Météo à : KBUR - Bob Hope ( 13 km )
METAR: KBUR 210153Z 18005KT 10SM CLR 25/12 A2991 RMK AO2 SLP115 T02500122 $
TAF: KBUR 202334Z 2100/2124 16011KT P6SM SKC FM210300 13005KT P6SM SKC FM210800 VRB03KT P6SM SKC FM212100 17010KT P6SM SKC
Voir NOTAMs / SUP AIP / TFR affectant cet aéroport [VIEW]
Fréquences de communication: [VIEW]

Pistes:

Coordonnées de l'aéroport

Adresse: Los Angeles United States

Vue satellite de CL70